Tuesday, May 31, 2016
19:57 UTC
  |  Log In   |  Register Free
Airport Search:

Independence Municipal Airport
(KIDP)

FAA data valid effective Mar 31 2016 - May 26 2016 (unless otherwise noted).

 
 
 
 
 
 
 
 
 
 
 
 
 
 
Current Aviation Weather for KIDP

Weather Summary


The most recent METAR observation for IDP was updated at: 12:55 UTC
METAR for KIDP is not available. Closest METAR is for KCFV
KIDP  (most recent observation was updatred at 31:19 UTC)
311935Z AUTO 13004KT 10SM SCT025 26/18 A2990 RMK AO2

KCFV  (10.6 nm NW)   (most recent observation was updated at 31:19 UTC)
311952Z AUTO 19004KT 10SM FEW027 26/20 A2990 RMK AO2 SLP118 T02560200

KPPF  (16.6 nm SW)   (most recent observation was updated at 31:19 UTC)
311952Z AUTO 00000KT 10SM FEW033 SCT065 BKN100 26/19 A2992 RMK AO2 SLP123 T02610189

TAF for KIDP is not available.
KBVO  (26.2 nm NE)   (most recent observation was updatred at 31:17 UTC)
311737Z 3118/0118 09006KT P6SM SCT015 SCT025 OVC110 TEMPO 3118/3120 BKN015 FM312000 12006KT P6SM VCTS BKN040CB FM010200 VRB05KT P6SM BKN050 BKN100 TEMPO 0112/0116 BKN015


KCNU  (33.7 nm SW)   (most recent observation was updatred at 31:17 UTC)
311720Z 3118/0118 15007KT P6SM SCT035 OVC080 FM312100 VRB03KT P6SM SCT025 OVC080 FM010300 VRB03KT P6SM BKN050 BKN100 FM011000 02005KT P6SM SCT015 BKN035


GlobalAir.com is loading additional information.
 Current Weather at IDP
73.0 F° (23.0 C°)

North winds at 0.0 mph
Pressure:
29.91 in
Humidity:
74%
Wind:
North at 0.0 mph
Dew Point:
64.4 F° (18.0 C°)
Visibility:
10.00 mi
IDP NOAA Radar




Find All Airport Services Find A Hotel Find A Rental Car Find A Golf Course Find A Restaurant $100 Hamburger



Airport Weather Forecast for KIDP

Translated METAR for KIDP (1935 UTC)
METAR:
KIDP 311935Z AUTO 13004KT 10SM SCT025 26/18 A2990 RMK AO2
Conditions at:
KIDP (Independence Muni, KS) observed 1935 UTC 31 May 2016
Temperature:
26°C (78.8°F)
Dewpoint:
18°C (64.4°F) [RH = 61.4]
Pressure:
29.9 inches Hg (1012.5 mb)
Winds:
from the SE (130 degrees) at 4.6 mph (4 knots: 2.1 m/s)
Visibility:
10 mile(s)
Ceiling:
at least 12,000 feet AGL
Clouds:
Scattered Clouds at 2,500 feet AGL
Remarks:
site is un-manned
site is automated and HAS a precipitation sensor

FBO's on the Field
FBO Company Facility Photos Services Transportation Aviation Fuel Prices: Prices include tax
Catering Weather Repair Courtesy Rental Type 100LL JetA JetA+ MOGAS 8087
 
City of Independence

This FBO has not yet been rated
FS:Phillips 66
Last Updated: May-23
Login to update fuel prices
SS:
Contact City of IndependenceMore FBO Information
 
Add another FBO Facility Photos Catering Weather Repair Courtesy Rental Type 100LL JetA JetA+ MOGAS 8087
Services Transportation Aviation Fuel Prices: Prices include tax


model-print
model-print
model-print
model-print